createdAt,value
2022-11-20T00:01:39.742Z,14.27
2022-11-20T00:04:08.558Z,14.15
2022-11-20T00:06:37.069Z,14.33
2022-11-20T00:09:06.482Z,14.33
2022-11-20T00:11:35.686Z,14.34
2022-11-20T00:14:04.768Z,14.42
2022-11-20T00:16:35.192Z,14.39
2022-11-20T00:19:05.139Z,14.12
2022-11-20T00:21:34.052Z,14.36
2022-11-20T00:24:02.524Z,14.40
2022-11-20T00:26:31.897Z,14.41
2022-11-20T00:29:02.029Z,14.32
2022-11-20T00:31:46.318Z,14.25
2022-11-20T00:34:16.294Z,14.34
2022-11-20T00:36:44.705Z,14.31
2022-11-20T00:39:13.485Z,14.15
2022-11-20T00:41:42.228Z,14.07
2022-11-20T00:44:10.976Z,14.26
2022-11-20T00:46:39.483Z,14.37
2022-11-20T00:49:07.941Z,14.42
2022-11-20T00:51:37.868Z,14.48
2022-11-20T00:54:06.832Z,14.35
2022-11-20T00:56:35.270Z,14.42
2022-11-20T00:59:03.800Z,14.47
2022-11-20T01:01:32.484Z,14.42
2022-11-20T01:04:02.396Z,14.46
2022-11-20T01:06:32.672Z,14.48
2022-11-20T01:09:07.503Z,14.48
2022-11-20T01:11:38.390Z,14.45
2022-11-20T01:14:08.541Z,14.44
2022-11-20T01:16:39.604Z,14.44
2022-11-20T01:19:10.050Z,14.47
2022-11-20T01:21:40.713Z,14.48
2022-11-20T01:24:16.467Z,14.50
2022-11-20T01:26:46.602Z,14.42
2022-11-20T01:29:17.371Z,14.36
2022-11-20T01:31:46.275Z,14.41
2022-11-20T01:34:16.581Z,14.32
2022-11-20T01:36:46.052Z,14.29
2022-11-20T01:39:17.906Z,14.40
2022-11-20T01:42:09.427Z,14.39
2022-11-20T01:44:53.547Z,14.39
2022-11-20T01:47:31.160Z,14.36
2022-11-20T01:50:05.191Z,14.47
2022-11-20T01:52:38.833Z,14.47
2022-11-20T01:55:14.316Z,14.39
2022-11-20T01:57:43.253Z,14.49
2022-11-20T02:00:15.427Z,14.46
2022-11-20T02:02:49.761Z,14.52
2022-11-20T02:05:25.551Z,14.52
2022-11-20T02:07:57.584Z,14.36
2022-11-20T02:10:29.391Z,14.33
2022-11-20T02:13:15.575Z,14.38
2022-11-20T02:15:44.701Z,14.46
2022-11-20T02:18:16.523Z,14.30
2022-11-20T02:21:03.534Z,14.44
2022-11-20T02:23:41.051Z,14.37
2022-11-20T02:26:15.574Z,14.58
2022-11-20T02:28:51.738Z,14.52
2022-11-20T02:31:24.885Z,14.50
2022-11-20T02:33:57.572Z,14.66
2022-11-20T02:36:28.807Z,14.64
2022-11-20T02:38:57.726Z,14.56
2022-11-20T02:41:35.138Z,14.69
2022-11-20T02:44:04.352Z,14.64
2022-11-20T02:46:33.787Z,14.64
2022-11-20T02:49:03.567Z,14.64
2022-11-20T02:51:32.709Z,14.36
2022-11-20T02:54:01.337Z,14.47
2022-11-20T02:56:30.160Z,14.59
2022-11-20T02:59:00.032Z,14.66
2022-11-20T03:01:28.604Z,14.64
2022-11-20T03:03:57.296Z,14.57
2022-11-20T03:06:26.057Z,14.62
2022-11-20T03:08:54.519Z,14.47
2022-11-20T03:11:23.245Z,14.36
2022-11-20T03:13:51.704Z,14.33
2022-11-20T03:16:23.960Z,14.31
2022-11-20T03:18:55.040Z,14.25
2022-11-20T03:21:23.587Z,14.43
2022-11-20T03:23:52.039Z,14.49
2022-11-20T03:26:22.698Z,14.55
2022-11-20T03:28:53.161Z,14.58
2022-11-20T03:31:25.813Z,14.60
2022-11-20T03:33:54.808Z,14.38
2022-11-20T03:36:23.669Z,14.28
2022-11-20T03:38:52.847Z,14.20
2022-11-20T03:41:23.150Z,14.26
2022-11-20T03:43:52.625Z,14.41
2022-11-20T03:46:23.052Z,14.69
2022-11-20T03:48:52.326Z,14.58
2022-11-20T03:51:22.809Z,14.55
2022-11-20T03:53:53.014Z,14.56
2022-11-20T03:56:25.425Z,14.68
2022-11-20T03:58:53.848Z,14.75
2022-11-20T04:01:25.386Z,14.90
2022-11-20T04:03:54.826Z,14.80
2022-11-20T04:06:25.499Z,14.66
2022-11-20T04:08:56.172Z,14.64
2022-11-20T04:11:26.723Z,14.55
2022-11-20T04:13:58.080Z,14.51
2022-11-20T04:16:28.951Z,14.52
2022-11-20T04:19:00.671Z,14.45
2022-11-20T04:21:29.633Z,14.23
2022-11-20T04:23:58.712Z,14.51
2022-11-20T04:26:29.156Z,14.68
2022-11-20T04:28:58.070Z,14.68
2022-11-20T04:31:30.417Z,14.84
2022-11-20T04:34:02.202Z,14.88
2022-11-20T04:36:31.790Z,14.99
2022-11-20T04:39:01.608Z,15.01
2022-11-20T04:41:31.887Z,14.92
2022-11-20T04:44:04.293Z,14.87
2022-11-20T04:46:36.954Z,15.01
2022-11-20T04:49:05.682Z,14.95
2022-11-20T04:51:34.762Z,15.03
2022-11-20T04:54:03.646Z,15.06
2022-11-20T04:56:32.391Z,14.96
2022-11-20T04:59:02.837Z,15.01
2022-11-20T05:04:42.619Z,15.00
2022-11-20T05:07:11.122Z,15.10
2022-11-20T05:09:39.683Z,15.16
2022-11-20T05:12:09.705Z,15.05
2022-11-20T05:14:38.465Z,15.10
2022-11-20T05:17:06.946Z,15.09
2022-11-20T05:19:35.882Z,15.10
2022-11-20T05:22:06.985Z,15.19
2022-11-20T05:24:35.853Z,15.02
2022-11-20T05:27:04.423Z,15.09
2022-11-20T05:29:32.968Z,15.09
2022-11-20T05:32:01.401Z,15.10
2022-11-20T05:34:29.972Z,15.02
2022-11-20T05:36:58.651Z,15.23
2022-11-20T05:39:28.584Z,15.31
2022-11-20T05:42:10.980Z,15.22
2022-11-20T05:44:39.459Z,15.31
2022-11-20T05:47:08.131Z,15.27
2022-11-20T05:49:36.547Z,15.16
2022-11-20T05:52:05.371Z,15.22
2022-11-20T05:54:35.270Z,15.29
2022-11-20T05:57:03.850Z,15.20
2022-11-20T05:59:32.437Z,15.32
2022-11-20T06:02:00.872Z,15.12
2022-11-20T06:04:29.324Z,15.21
2022-11-20T06:06:57.904Z,15.22
2022-11-20T06:09:26.465Z,15.27
2022-11-20T06:11:56.323Z,15.36
2022-11-20T06:14:25.184Z,15.27
2022-11-20T06:16:53.569Z,15.11
2022-11-20T06:19:22.176Z,15.05
2022-11-20T06:21:51.497Z,15.11
2022-11-20T06:24:20.014Z,15.25
2022-11-20T06:26:48.475Z,15.22
2022-11-20T06:29:18.562Z,15.34
2022-11-20T06:31:47.046Z,15.24
2022-11-20T06:34:15.549Z,15.28
2022-11-20T06:36:43.983Z,15.10
2022-11-20T06:39:12.809Z,15.08
2022-11-20T06:41:41.281Z,15.25
2022-11-20T06:44:09.741Z,15.30
2022-11-20T06:46:39.607Z,15.34
2022-11-20T06:49:08.369Z,15.34
2022-11-20T06:51:36.796Z,15.31
2022-11-20T06:54:05.321Z,15.33
2022-11-20T06:56:33.741Z,15.33
2022-11-20T06:59:06.503Z,15.53
2022-11-20T07:01:36.144Z,15.27
2022-11-20T07:04:06.306Z,15.46
2022-11-20T07:06:34.780Z,15.46
2022-11-20T07:09:03.469Z,15.28
2022-11-20T07:11:31.948Z,15.41
2022-11-20T07:14:00.534Z,15.34
2022-11-20T07:16:29.915Z,15.28
2022-11-20T07:18:58.395Z,15.41
2022-11-20T07:21:28.265Z,15.47
2022-11-20T07:23:56.902Z,15.55
2022-11-20T07:26:25.335Z,15.57
2022-11-20T07:28:53.784Z,15.60
2022-11-20T07:31:22.668Z,15.54
2022-11-20T07:33:51.195Z,15.25
2022-11-20T07:36:19.678Z,15.55
2022-11-20T07:38:49.593Z,15.23
2022-11-20T07:41:18.081Z,15.48
2022-11-20T07:43:46.582Z,15.45
2022-11-20T07:46:15.120Z,15.66
2022-11-20T07:48:43.657Z,15.47
2022-11-20T07:51:12.439Z,15.49
2022-11-20T07:53:40.916Z,15.82
2022-11-20T07:56:10.916Z,15.81
2022-11-20T07:58:39.424Z,15.30
2022-11-20T08:01:09.061Z,15.55
2022-11-20T08:03:39.745Z,15.24
2022-11-20T08:06:09.232Z,15.50
2022-11-20T08:08:42.398Z,15.83
2022-11-20T08:11:30.255Z,15.63
2022-11-20T08:14:14.053Z,15.74
2022-11-20T08:16:43.808Z,16.00
2022-11-20T08:19:12.507Z,15.77
2022-11-20T08:21:41.393Z,15.88
2022-11-20T08:24:10.568Z,15.95
2022-11-20T08:26:41.820Z,15.80
2022-11-20T08:29:10.442Z,15.94
2022-11-20T08:31:38.948Z,15.76
2022-11-20T08:34:09.491Z,16.18
2022-11-20T08:36:38.725Z,15.57
2022-11-20T08:39:07.205Z,16.00
2022-11-20T08:41:35.990Z,15.98
2022-11-20T08:44:08.779Z,15.92
2022-11-20T08:46:39.709Z,15.69
2022-11-20T08:49:09.720Z,16.05
2022-11-20T08:51:38.408Z,16.10
2022-11-20T08:54:08.166Z,15.96
2022-11-20T08:56:36.800Z,16.13
2022-11-20T09:01:55.484Z,16.65
2022-11-20T09:04:23.989Z,16.45
2022-11-20T09:06:53.150Z,16.27
2022-11-20T09:09:22.620Z,16.21
2022-11-20T09:11:52.157Z,16.77
2022-11-20T09:14:22.487Z,16.69
2022-11-20T09:16:51.033Z,16.75
2022-11-20T09:19:36.061Z,17.08
2022-11-20T09:22:05.133Z,16.82
2022-11-20T09:24:34.035Z,16.96
2022-11-20T09:27:05.642Z,17.04
2022-11-20T09:29:35.697Z,17.33
2022-11-20T09:32:04.169Z,17.15
2022-11-20T09:34:32.690Z,16.80
2022-11-20T09:37:04.479Z,17.06
2022-11-20T09:39:35.586Z,17.09
2022-11-20T09:42:22.937Z,16.97
2022-11-20T09:45:13.439Z,17.04
2022-11-20T09:47:55.906Z,17.37
2022-11-20T09:50:34.129Z,17.51
2022-11-20T09:53:14.531Z,17.78
2022-11-20T09:55:43.038Z,17.57
2022-11-20T09:58:22.055Z,17.75
2022-11-20T10:00:54.229Z,17.78
2022-11-20T10:03:37.240Z,17.43
2022-11-20T10:06:10.845Z,17.74
2022-11-20T10:08:44.134Z,17.99
2022-11-20T10:11:20.528Z,17.91
2022-11-20T10:13:59.034Z,17.90
2022-11-20T10:16:45.195Z,17.75
2022-11-20T10:19:31.886Z,17.76
2022-11-20T10:22:12.114Z,17.83
2022-11-20T10:24:47.117Z,17.85
2022-11-20T10:27:42.516Z,17.80
2022-11-20T10:30:13.544Z,17.47
2022-11-20T10:32:47.203Z,17.53
2022-11-20T10:35:24.220Z,17.19
2022-11-20T10:37:58.741Z,17.14
2022-11-20T10:40:33.663Z,17.08
2022-11-20T10:43:04.892Z,17.03
2022-11-20T10:45:46.656Z,17.27
2022-11-20T10:48:19.248Z,17.45
2022-11-20T10:51:00.172Z,17.34
2022-11-20T10:53:43.493Z,17.34
2022-11-20T10:56:18.635Z,17.70
2022-11-20T10:58:56.796Z,17.57
2022-11-20T11:01:25.335Z,17.58
2022-11-20T11:03:57.222Z,17.49
2022-11-20T11:06:35.042Z,17.55
2022-11-20T11:09:11.317Z,17.50
2022-11-20T11:11:40.999Z,17.40
2022-11-20T11:14:10.846Z,17.33
2022-11-20T11:16:51.875Z,17.42
2022-11-20T11:19:22.164Z,17.52
2022-11-20T11:21:55.739Z,17.74
2022-11-20T11:24:43.217Z,17.81
2022-11-20T11:27:19.219Z,18.08
2022-11-20T11:29:48.494Z,18.25
2022-11-20T11:32:21.722Z,18.32
2022-11-20T11:35:03.332Z,18.32
2022-11-20T11:37:36.608Z,18.41
2022-11-20T11:43:00.049Z,18.30
2022-11-20T11:45:28.141Z,18.15
2022-11-20T11:47:59.130Z,18.33
2022-11-20T11:50:30.697Z,18.39
2022-11-20T11:53:10.893Z,18.27
2022-11-20T11:55:45.003Z,18.38
2022-11-20T11:58:33.075Z,18.36
2022-11-20T12:01:07.188Z,18.10
2022-11-20T12:03:38.739Z,18.14
2022-11-20T12:06:15.132Z,18.21
2022-11-20T12:08:50.628Z,18.38
2022-11-20T12:11:25.624Z,18.53
2022-11-20T12:13:58.399Z,18.10
2022-11-20T12:16:27.014Z,18.49
2022-11-20T12:18:55.640Z,18.35
2022-11-20T12:21:36.843Z,18.38
2022-11-20T12:24:19.339Z,18.50
2022-11-20T12:26:59.707Z,18.38
2022-11-20T12:29:43.332Z,18.42
2022-11-20T12:32:47.048Z,18.47
2022-11-20T12:35:46.219Z,18.60
2022-11-20T12:39:02.782Z,18.65
2022-11-20T12:42:07.474Z,19.06
2022-11-20T12:45:11.980Z,19.22
2022-11-20T12:47:53.768Z,19.03
2022-11-20T12:50:30.577Z,19.30
2022-11-20T12:53:07.488Z,19.64
2022-11-20T12:55:48.310Z,19.62
2022-11-20T12:58:26.397Z,19.97
2022-11-20T13:01:02.938Z,20.14
2022-11-20T13:03:48.435Z,20.13
2022-11-20T13:06:19.557Z,20.17
2022-11-20T13:08:54.432Z,19.86
2022-11-20T13:11:34.718Z,20.39
2022-11-20T13:14:14.859Z,20.22
2022-11-20T13:16:49.632Z,20.11
2022-11-20T13:19:20.050Z,20.09
2022-11-20T13:21:51.497Z,20.64
2022-11-20T13:24:28.733Z,20.78
2022-11-20T13:27:07.415Z,20.85
2022-11-20T13:29:38.284Z,20.82
2022-11-20T13:32:08.799Z,20.52
2022-11-20T13:34:38.152Z,20.39
2022-11-20T13:37:06.874Z,20.28
2022-11-20T13:39:37.861Z,20.15
2022-11-20T13:42:25.775Z,20.29
2022-11-20T13:44:57.405Z,20.16
2022-11-20T13:47:27.910Z,20.15
2022-11-20T13:49:58.081Z,20.06
2022-11-20T13:52:44.773Z,20.28
2022-11-20T13:55:24.844Z,20.21
2022-11-20T13:58:17.771Z,20.17
2022-11-20T14:00:50.432Z,19.88
2022-11-20T14:03:50.787Z,19.78
2022-11-20T14:06:16.801Z,19.95
2022-11-20T14:08:49.408Z,20.13
2022-11-20T14:11:20.873Z,20.14
2022-11-20T14:14:04.013Z,20.37
2022-11-20T14:16:35.016Z,20.07
2022-11-20T14:19:31.521Z,20.31
2022-11-20T14:22:12.101Z,20.51
2022-11-20T14:24:40.635Z,20.39
2022-11-20T14:27:15.584Z,20.27
2022-11-20T14:29:47.841Z,20.28
2022-11-20T14:32:19.370Z,20.00
2022-11-20T14:34:50.905Z,19.92
2022-11-20T14:37:23.895Z,20.07
2022-11-20T14:39:54.597Z,19.96
2022-11-20T14:42:26.180Z,20.07
2022-11-20T14:44:58.915Z,20.06
2022-11-20T14:47:29.676Z,20.18
2022-11-20T14:49:59.671Z,20.12
2022-11-20T14:52:29.736Z,19.77
2022-11-20T14:55:01.122Z,19.79
2022-11-20T14:57:31.340Z,19.52
2022-11-20T15:00:10.813Z,19.61
2022-11-20T15:02:43.470Z,19.75
2022-11-20T15:05:11.986Z,19.82
2022-11-20T15:07:46.517Z,19.78
2022-11-20T15:10:22.782Z,19.92
2022-11-20T15:12:53.232Z,19.77
2022-11-20T15:15:28.027Z,19.45
2022-11-20T15:17:56.683Z,19.66
2022-11-20T15:20:28.888Z,19.43
2022-11-20T15:22:57.511Z,19.19
2022-11-20T15:25:26.780Z,19.15
2022-11-20T15:27:58.101Z,19.35
2022-11-20T15:30:28.214Z,19.22
2022-11-20T15:32:56.642Z,19.09
2022-11-20T15:35:25.219Z,19.32
2022-11-20T15:37:53.876Z,18.95
2022-11-20T15:40:22.357Z,18.80
2022-11-20T15:43:11.574Z,18.67
2022-11-20T15:45:45.922Z,18.75
2022-11-20T15:48:18.319Z,18.77
2022-11-20T15:50:54.854Z,18.87
2022-11-20T15:53:23.504Z,18.93
2022-11-20T15:55:51.942Z,18.93
2022-11-20T15:58:20.394Z,18.95
2022-11-20T16:00:50.656Z,19.01
2022-11-20T16:03:20.028Z,19.02
2022-11-20T16:05:48.481Z,18.92
2022-11-20T16:08:17.383Z,18.99
2022-11-20T16:10:45.902Z,18.79
2022-11-20T16:13:33.782Z,18.84
2022-11-20T16:16:06.735Z,18.69
2022-11-20T16:18:35.972Z,18.72
2022-11-20T16:21:05.099Z,18.67
2022-11-20T16:23:34.222Z,18.77
2022-11-20T16:26:12.206Z,18.66
2022-11-20T16:28:40.952Z,18.66
2022-11-20T16:31:15.735Z,18.51
2022-11-20T16:33:44.608Z,18.39
2022-11-20T16:36:14.896Z,18.44
2022-11-20T16:38:44.058Z,18.31
2022-11-20T16:41:15.442Z,18.41
2022-11-20T16:43:48.196Z,18.29
2022-11-20T16:46:19.064Z,18.30
2022-11-20T16:48:47.873Z,18.17
2022-11-20T16:51:16.568Z,18.33
2022-11-20T16:53:45.427Z,18.23
2022-11-20T16:56:16.196Z,18.14
2022-11-20T16:58:44.715Z,18.16
2022-11-20T17:01:15.709Z,18.25
2022-11-20T17:03:46.645Z,18.38
2022-11-20T17:06:15.984Z,18.31
2022-11-20T17:08:46.507Z,18.11
2022-11-20T17:11:17.552Z,17.62
2022-11-20T17:13:46.850Z,18.05
2022-11-20T17:16:17.085Z,18.02
2022-11-20T17:18:47.423Z,17.99
2022-11-20T17:21:15.868Z,18.01
2022-11-20T17:23:46.338Z,18.09
2022-11-20T17:26:17.886Z,18.09
2022-11-20T17:28:47.580Z,18.11
2022-11-20T17:31:18.363Z,18.08
2022-11-20T17:33:49.029Z,18.02
2022-11-20T17:36:18.968Z,17.96
2022-11-20T17:38:48.707Z,17.75
2022-11-20T17:41:18.767Z,18.12
2022-11-20T17:43:47.288Z,17.93
2022-11-20T17:46:17.211Z,17.84
2022-11-20T17:48:48.093Z,17.93
2022-11-20T17:51:19.159Z,17.76
2022-11-20T17:53:49.311Z,17.98
2022-11-20T17:56:35.656Z,17.87
2022-11-20T17:59:06.546Z,17.95
2022-11-20T18:01:35.484Z,17.88
2022-11-20T18:04:05.598Z,17.87
2022-11-20T18:06:34.093Z,17.74
2022-11-20T18:09:04.248Z,17.79
2022-11-20T18:11:34.895Z,17.81
2022-11-20T18:14:23.409Z,17.85
2022-11-20T18:16:54.682Z,17.87
2022-11-20T18:19:31.447Z,17.95
2022-11-20T18:22:01.972Z,17.90
2022-11-20T18:24:30.921Z,17.90
2022-11-20T18:26:59.796Z,17.75
2022-11-20T18:29:31.225Z,17.64
2022-11-20T18:32:01.000Z,17.54
2022-11-20T18:34:31.059Z,17.64
2022-11-20T18:36:59.590Z,17.72
2022-11-20T18:39:28.133Z,17.74
2022-11-20T18:42:14.410Z,17.81
2022-11-20T18:44:52.453Z,17.79
2022-11-20T18:47:23.783Z,17.74
2022-11-20T18:49:57.308Z,17.90
2022-11-20T18:52:28.193Z,17.86
2022-11-20T18:54:57.192Z,17.83
2022-11-20T18:57:28.371Z,17.93
2022-11-20T19:00:03.490Z,17.98
2022-11-20T19:02:41.142Z,17.76
2022-11-20T19:05:12.855Z,17.91
2022-11-20T19:07:42.194Z,17.41
2022-11-20T19:10:12.583Z,17.87
2022-11-20T19:12:41.436Z,17.88
2022-11-20T19:15:10.405Z,17.86
2022-11-20T19:17:39.133Z,17.79
2022-11-20T19:20:08.552Z,17.81
2022-11-20T19:22:38.667Z,17.93
2022-11-20T19:25:08.421Z,17.82
2022-11-20T19:27:36.911Z,17.76
2022-11-20T19:30:06.237Z,17.83
2022-11-20T19:32:35.421Z,17.97
2022-11-20T19:35:05.145Z,17.95
2022-11-20T19:37:35.218Z,17.72
2022-11-20T19:40:05.637Z,17.98
2022-11-20T19:42:34.600Z,17.94
2022-11-20T19:45:03.117Z,17.94
2022-11-20T19:47:53.135Z,17.97
2022-11-20T19:50:20.109Z,17.98
2022-11-20T19:52:48.704Z,17.97
2022-11-20T19:55:18.781Z,18.08
2022-11-20T19:57:47.327Z,18.03
2022-11-20T20:00:24.453Z,18.00
2022-11-20T20:02:56.843Z,17.94
2022-11-20T20:05:25.577Z,17.99
2022-11-20T20:07:54.019Z,18.04
2022-11-20T20:10:24.104Z,18.06
2022-11-20T20:12:52.980Z,18.00
2022-11-20T20:15:21.491Z,18.05
2022-11-20T20:17:52.584Z,18.10
2022-11-20T20:20:21.508Z,18.07
2022-11-20T20:22:50.198Z,18.01
2022-11-20T20:25:18.962Z,18.09
2022-11-20T20:27:48.917Z,18.04
2022-11-20T20:30:17.457Z,18.15
2022-11-20T20:32:46.611Z,18.04
2022-11-20T20:35:15.166Z,18.05
2022-11-20T20:37:43.721Z,18.08
2022-11-20T20:40:15.356Z,18.10
2022-11-20T20:42:44.139Z,18.13
2022-11-20T20:45:14.287Z,18.13
2022-11-20T20:47:43.256Z,18.14
2022-11-20T20:50:13.467Z,18.20
2022-11-20T20:52:42.088Z,18.16
2022-11-20T20:55:11.406Z,18.11
2022-11-20T20:57:40.057Z,18.08
2022-11-20T21:00:10.475Z,17.91
2022-11-20T21:02:40.588Z,17.95
2022-11-20T21:05:09.940Z,18.14
2022-11-20T21:07:59.696Z,18.19
2022-11-20T21:10:30.715Z,18.27
2022-11-20T21:12:59.245Z,17.72
2022-11-20T21:15:28.412Z,18.18
2022-11-20T21:17:58.336Z,18.17
2022-11-20T21:20:44.354Z,18.19
2022-11-20T21:23:13.377Z,18.05
2022-11-20T21:25:41.896Z,18.17
2022-11-20T21:28:14.394Z,18.26
2022-11-20T21:30:46.464Z,18.08
2022-11-20T21:33:16.648Z,18.33
2022-11-20T21:35:45.163Z,18.23
2022-11-20T21:38:13.743Z,18.21
2022-11-20T21:40:42.170Z,18.14
2022-11-20T21:43:10.778Z,18.10
2022-11-20T21:45:39.468Z,18.20
2022-11-20T21:48:08.160Z,18.16
2022-11-20T21:50:38.576Z,18.17
2022-11-20T21:53:07.177Z,18.22
2022-11-20T21:55:35.858Z,18.26
2022-11-20T21:58:04.407Z,18.12
2022-11-20T22:00:33.242Z,17.90
2022-11-20T22:03:01.832Z,18.28
2022-11-20T22:05:30.366Z,18.21
2022-11-20T22:08:00.298Z,18.12
2022-11-20T22:10:29.038Z,18.18
2022-11-20T22:13:18.308Z,18.11
2022-11-20T22:16:00.344Z,18.05
2022-11-20T22:18:29.839Z,18.07
2022-11-20T22:20:58.347Z,18.24
2022-11-20T22:23:33.101Z,18.27
2022-11-20T22:26:06.361Z,18.30
2022-11-20T22:42:19.468Z,18.06
2022-11-20T22:44:48.447Z,18.01
2022-11-20T22:47:16.854Z,18.03
2022-11-20T22:49:45.484Z,18.05
2022-11-20T22:52:16.848Z,17.98
2022-11-20T22:54:45.523Z,17.97
2022-11-20T22:57:13.964Z,18.02
2022-11-20T22:59:43.817Z,18.14
2022-11-20T23:02:12.250Z,18.04
2022-11-20T23:04:40.716Z,18.01
2022-11-20T23:07:09.373Z,17.92
2022-11-20T23:09:38.014Z,17.97
2022-11-20T23:12:09.192Z,17.92
2022-11-20T23:14:37.802Z,17.89
2022-11-20T23:17:07.782Z,17.93
2022-11-20T23:19:36.220Z,17.94
2022-11-20T23:22:04.863Z,17.93
2022-11-20T23:24:33.339Z,17.93
2022-11-20T23:27:01.778Z,17.89
2022-11-20T23:29:30.456Z,17.98
2022-11-20T23:31:59.161Z,17.95
2022-11-20T23:34:29.323Z,18.09
2022-11-20T23:36:58.161Z,17.95
2022-11-20T23:39:26.708Z,17.97
2022-11-20T23:41:55.163Z,17.92
2022-11-20T23:44:25.580Z,17.93
2022-11-20T23:46:54.820Z,17.92
2022-11-20T23:49:23.756Z,17.88
2022-11-20T23:51:53.807Z,17.93
2022-11-20T23:54:22.307Z,17.82
2022-11-20T23:56:51.367Z,17.87
2022-11-20T23:59:19.921Z,17.87
